sensor_id;sensor_type;location;lat;lon;timestamp;pressure;altitude;pressure_sealevel;temperature;humidity
1776;BME280;885;42.626;23.200;2023-07-22T00:01:33;131080.50;;;22.96;88.99
1776;BME280;885;42.626;23.200;2023-07-22T00:03:59;131455.81;;;22.96;89.50
1776;BME280;885;42.626;23.200;2023-07-22T00:06:26;131055.22;;;22.84;90.07
1776;BME280;885;42.626;23.200;2023-07-22T00:08:53;131049.97;;;22.81;89.82
1776;BME280;885;42.626;23.200;2023-07-22T00:11:21;131053.16;;;22.83;89.33
1776;BME280;885;42.626;23.200;2023-07-22T00:13:48;131415.69;;;22.77;90.29
1776;BME280;885;42.626;23.200;2023-07-22T00:16:14;131393.50;;;22.66;91.51
1776;BME280;885;42.626;23.200;2023-07-22T00:18:41;130995.22;;;22.55;91.15
1776;BME280;885;42.626;23.200;2023-07-22T00:21:08;131371.34;;;22.56;90.93
1776;BME280;885;42.626;23.200;2023-07-22T00:23:36;131747.47;;;22.56;92.17
1776;BME280;885;42.626;23.200;2023-07-22T00:26:04;132117.31;;;22.54;92.87
1776;BME280;885;42.626;23.200;2023-07-22T00:28:32;132463.75;;;22.40;93.77
1776;BME280;885;42.626;23.200;2023-07-22T00:30:59;132415.84;;;22.18;94.89
1776;BME280;885;42.626;23.200;2023-07-22T00:33:28;132397.75;;;22.09;95.16
1776;BME280;885;42.626;23.200;2023-07-22T00:35:56;132400.91;;;22.10;94.13
1776;BME280;885;42.626;23.200;2023-07-22T00:38:23;132047.25;;;22.21;91.51
1776;BME280;885;42.626;23.200;2023-07-22T00:40:49;132432.88;;;22.26;92.44
1776;BME280;885;42.626;23.200;2023-07-22T00:43:16;132434.97;;;22.27;92.16
1776;BME280;885;42.626;23.200;2023-07-22T00:45:45;132420.09;;;22.20;93.25
1776;BME280;885;42.626;23.200;2023-07-22T00:48:13;132785.47;;;22.15;93.08
1776;BME280;885;42.626;23.200;2023-07-22T00:50:41;132804.69;;;22.24;92.80
1776;BME280;885;42.626;23.200;2023-07-22T00:53:08;133178.69;;;22.24;93.97
1776;BME280;885;42.626;23.200;2023-07-22T00:55:35;133173.31;;;22.21;93.61
1776;BME280;885;42.626;23.200;2023-07-22T00:58:04;133550.53;;;22.22;94.44
1776;BME280;885;42.626;23.200;2023-07-22T01:00:31;134299.69;;;22.22;95.63
1776;BME280;885;42.626;23.200;2023-07-22T01:02:59;135048.97;;;22.21;97.12
1776;BME280;885;42.626;23.200;2023-07-22T01:05:26;135423.09;;;22.21;96.83
1776;BME280;885;42.626;23.200;2023-07-22T01:07:54;135037.03;;;22.16;96.45
1776;BME280;885;42.626;23.200;2023-07-22T01:10:21;134996.84;;;21.97;97.56
1776;BME280;885;42.626;23.200;2023-07-22T01:12:49;134977.25;;;21.88;98.03
1776;BME280;885;42.626;23.200;2023-07-22T01:15:16;135340.31;;;21.82;98.06
1776;BME280;885;42.626;23.200;2023-07-22T01:17:45;135694.53;;;21.73;99.20
1776;BME280;885;42.626;23.200;2023-07-22T01:20:14;136056.38;;;21.67;99.09
1776;BME280;885;42.626;23.200;2023-07-22T01:22:50;136047.63;;;21.63;99.42
1776;BME280;885;42.626;23.200;2023-07-22T01:25:19;137189.19;;;21.70;99.80
1776;BME280;885;42.626;23.200;2023-07-22T01:27:47;137571.00;;;21.73;100.00
1776;BME280;885;42.626;23.200;2023-07-22T01:30:14;137170.41;;;21.62;99.71
1776;BME280;885;42.626;23.200;2023-07-22T01:32:41;137172.66;;;21.63;99.23
1776;BME280;885;42.626;23.200;2023-07-22T01:35:08;137547.72;;;21.63;99.84
1776;BME280;885;42.626;23.200;2023-07-22T01:37:35;137920.59;;;21.62;99.93
1776;BME280;885;42.626;23.200;2023-07-22T01:40:04;137543.28;;;21.61;98.88
1776;BME280;885;42.626;23.200;2023-07-22T01:42:37;137548.84;;;21.63;98.82
1776;BME280;885;42.626;23.200;2023-07-22T01:45:05;137927.28;;;21.65;100.00
1776;BME280;885;42.626;23.200;2023-07-22T01:47:33;137923.94;;;21.63;98.82
1776;BME280;885;42.626;23.200;2023-07-22T01:50:00;138300.19;;;21.64;100.00
1776;BME280;885;42.626;23.200;2023-07-22T01:52:26;139049.50;;;21.63;100.00
1776;BME280;885;42.626;23.200;2023-07-22T01:54:53;138666.44;;;21.60;100.00
1776;BME280;885;42.626;23.200;2023-07-22T01:57:21;139036.06;;;21.57;100.00
1776;BME280;885;42.626;23.200;2023-07-22T01:59:48;139393.25;;;21.49;100.00
1776;BME280;885;42.626;23.200;2023-07-22T02:02:14;139379.78;;;21.43;100.00
1776;BME280;885;42.626;23.200;2023-07-22T02:04:41;140125.59;;;21.41;100.00
1776;BME280;885;42.626;23.200;2023-07-22T02:07:08;139738.03;;;21.35;100.00
1776;BME280;885;42.626;23.200;2023-07-22T02:09:35;140091.72;;;21.26;100.00
1776;BME280;885;42.626;23.200;2023-07-22T02:12:02;140071.38;;;21.17;100.00
1776;BME280;885;42.626;23.200;2023-07-22T02:14:30;139676.06;;;21.08;100.00
1776;BME280;885;42.626;23.200;2023-07-22T02:16:57;140048.78;;;21.07;100.00
1776;BME280;885;42.626;23.200;2023-07-22T02:19:24;139661.34;;;21.01;100.00
1776;BME280;885;42.626;23.200;2023-07-22T02:21:51;140780.56;;;20.99;100.00
1776;BME280;885;42.626;23.200;2023-07-22T02:24:17;141532.94;;;21.00;100.00
1776;BME280;885;42.626;23.200;2023-07-22T02:26:44;141526.06;;;20.97;100.00
1776;BME280;885;42.626;23.200;2023-07-22T02:29:11;141896.56;;;20.95;100.00
1776;BME280;885;42.626;23.200;2023-07-22T02:31:39;141880.56;;;20.88;100.00
1776;BME280;885;42.626;23.200;2023-07-22T02:34:06;142617.97;;;20.82;100.00
1776;BME280;885;42.626;23.200;2023-07-22T02:36:33;143350.84;;;20.75;100.00
1776;BME280;885;42.626;23.200;2023-07-22T02:39:00;144102.25;;;20.75;100.00
1776;BME280;885;42.626;23.200;2023-07-22T02:41:26;144484.41;;;20.78;100.00
1776;BME280;885;42.626;23.200;2023-07-22T02:43:53;144483.28;;;20.78;100.00
1776;BME280;885;42.626;23.200;2023-07-22T02:46:20;144463.44;;;20.69;100.00
1776;BME280;885;42.626;23.200;2023-07-22T02:48:48;145225.50;;;20.74;100.00
1776;BME280;885;42.626;23.200;2023-07-22T02:51:15;145219.63;;;20.72;100.00
1776;BME280;885;42.626;23.200;2023-07-22T02:53:41;145592.56;;;20.71;100.00
1776;BME280;885;42.626;23.200;2023-07-22T02:56:10;145600.78;;;20.74;100.00
1776;BME280;885;42.626;23.200;2023-07-22T02:58:36;145967.84;;;20.71;100.00
1776;BME280;885;42.626;23.200;2023-07-22T03:01:03;145581.97;;;20.66;100.00
1776;BME280;885;42.626;23.200;2023-07-22T03:03:31;144804.66;;;20.54;100.00
1776;BME280;885;42.626;23.200;2023-07-22T03:06:00;144776.53;;;20.42;100.00
1776;BME280;885;42.626;23.200;2023-07-22T03:08:27;144754.31;;;20.33;100.00
1776;BME280;885;42.626;23.200;2023-07-22T03:10:54;145121.09;;;20.29;100.00
1776;BME280;885;42.626;23.200;2023-07-22T03:13:21;145114.03;;;20.26;100.00
1776;BME280;885;42.626;23.200;2023-07-22T03:15:47;145497.22;;;20.30;100.00
1776;BME280;885;42.626;23.200;2023-07-22T03:18:14;145499.59;;;20.31;100.00
1776;BME280;885;42.626;23.200;2023-07-22T03:20:41;145490.19;;;20.27;100.00
1776;BME280;885;42.626;23.200;2023-07-22T03:23:09;145892.31;;;20.38;100.00
1776;BME280;885;42.626;23.200;2023-07-22T03:25:36;145911.19;;;20.46;100.00
1776;BME280;885;42.626;23.200;2023-07-22T03:28:05;145885.25;;;20.35;100.00
1776;BME280;885;42.626;23.200;2023-07-22T03:30:32;145871.13;;;20.29;100.00
1776;BME280;885;42.626;23.200;2023-07-22T03:32:59;146633.09;;;20.34;100.00
1776;BME280;885;42.626;23.200;2023-07-22T03:35:26;146634.28;;;20.35;100.00
1776;BME280;885;42.626;23.200;2023-07-22T03:37:53;147013.00;;;20.36;100.00
1776;BME280;885;42.626;23.200;2023-07-22T03:40:21;146644.97;;;20.39;100.00
1776;BME280;885;42.626;23.200;2023-07-22T03:42:53;146618.88;;;20.28;100.00
1776;BME280;885;42.626;23.200;2023-07-22T03:45:21;146989.25;;;20.26;100.00
1776;BME280;885;42.626;23.200;2023-07-22T03:47:50;147381.09;;;20.33;100.00
1776;BME280;885;42.626;23.200;2023-07-22T03:50:17;147769.44;;;20.39;100.00
1776;BME280;885;42.626;23.200;2023-07-22T03:52:43;147376.31;;;20.31;100.00
1776;BME280;885;42.626;23.200;2023-07-22T03:55:10;147773.00;;;20.40;100.00
1776;BME280;885;42.626;23.200;2023-07-22T03:57:38;148143.53;;;20.38;100.00
1776;BME280;885;42.626;23.200;2023-07-22T04:00:06;148530.88;;;20.43;100.00
1776;BME280;885;42.626;23.200;2023-07-22T04:02:34;148538.06;;;20.46;100.00
1776;BME280;885;42.626;23.200;2023-07-22T04:05:02;148918.31;;;20.48;100.00
1776;BME280;885;42.626;23.200;2023-07-22T04:07:28;149291.34;;;20.47;100.00
1776;BME280;885;42.626;23.200;2023-07-22T04:09:55;149683.78;;;20.54;100.00
1776;BME280;885;42.626;23.200;2023-07-22T04:12:23;150077.53;;;20.62;100.00
1776;BME280;885;42.626;23.200;2023-07-22T04:14:51;150472.66;;;20.70;100.00
1776;BME280;885;42.626;23.200;2023-07-22T04:17:18;150481.16;;;20.74;100.00
1776;BME280;885;42.626;23.200;2023-07-22T04:19:45;150484.84;;;20.75;100.00
1776;BME280;885;42.626;23.200;2023-07-22T04:22:11;150470.25;;;20.69;100.00
1776;BME280;885;42.626;23.200;2023-07-22T04:24:38;150831.31;;;20.63;100.00
1776;BME280;885;42.626;23.200;2023-07-22T04:27:05;151214.34;;;20.66;100.00
1776;BME280;885;42.626;23.200;2023-07-22T04:29:32;151620.78;;;20.79;100.00
1776;BME280;885;42.626;23.200;2023-07-22T04:32:01;152006.50;;;20.83;100.00
1776;BME280;885;42.626;23.200;2023-07-22T04:34:29;152016.34;;;20.87;100.00
1776;BME280;885;42.626;23.200;2023-07-22T04:36:56;152391.06;;;20.86;100.00
1776;BME280;885;42.626;23.200;2023-07-22T04:39:23;152780.69;;;20.92;100.00
1776;BME280;885;42.626;23.200;2023-07-22T04:41:50;152800.47;;;21.00;100.00
1776;BME280;885;42.626;23.200;2023-07-22T04:44:17;152819.06;;;21.07;100.00
1776;BME280;885;42.626;23.200;2023-07-22T04:46:44;153194.00;;;21.07;100.00
1776;BME280;885;42.626;23.200;2023-07-22T04:49:12;153201.44;;;21.10;100.00
1776;BME280;885;42.626;23.200;2023-07-22T04:51:43;153602.50;;;21.20;100.00
1776;BME280;885;42.626;23.200;2023-07-22T04:54:10;153609.97;;;21.23;100.00
1776;BME280;885;42.626;23.200;2023-07-22T04:56:36;154007.50;;;21.31;100.00
1776;BME280;885;42.626;23.200;2023-07-22T04:59:04;154415.16;;;21.44;100.00
1776;BME280;885;42.626;23.200;2023-07-22T05:01:31;154422.63;;;21.47;100.00
1776;BME280;885;42.626;23.200;2023-07-22T05:03:58;154438.91;;;21.54;100.00
1776;BME280;885;42.626;23.200;2023-07-22T05:06:28;154451.41;;;21.59;100.00
1776;BME280;885;42.626;23.200;2023-07-22T05:08:55;154480.16;;;21.70;100.00
1776;BME280;885;42.626;23.200;2023-07-22T05:11:22;154475.16;;;21.68;100.00
1776;BME280;885;42.626;23.200;2023-07-22T05:13:49;154481.41;;;21.71;100.00
1776;BME280;885;42.626;23.200;2023-07-22T05:16:16;154487.66;;;21.73;100.00
1776;BME280;885;42.626;23.200;2023-07-22T05:18:44;154118.44;;;21.76;100.00
1776;BME280;885;42.626;23.200;2023-07-22T05:21:11;154137.22;;;21.84;100.00
1776;BME280;885;42.626;23.200;2023-07-22T05:23:40;154135.97;;;21.83;100.00
1776;BME280;885;42.626;23.200;2023-07-22T05:26:07;154155.91;;;21.91;100.00
1776;BME280;885;42.626;23.200;2023-07-22T05:28:34;154185.88;;;22.03;100.00
1776;BME280;885;42.626;23.200;2023-07-22T05:31:01;154208.31;;;22.12;100.00
1776;BME280;885;42.626;23.200;2023-07-22T05:33:28;154616.50;;;22.25;100.00
1776;BME280;885;42.626;23.200;2023-07-22T05:35:54;154263.22;;;22.35;100.00
1776;BME280;885;42.626;23.200;2023-07-22T05:38:20;153917.31;;;22.47;100.00
1776;BME280;885;42.626;23.200;2023-07-22T05:40:49;153924.75;;;22.50;100.00
1776;BME280;885;42.626;23.200;2023-07-22T05:43:16;153934.69;;;22.54;100.00
1776;BME280;885;42.626;23.200;2023-07-22T05:45:43;153930.97;;;22.53;100.00
1776;BME280;885;42.626;23.200;2023-07-22T05:48:09;154330.63;;;22.62;100.00
1776;BME280;885;42.626;23.200;2023-07-22T05:50:36;154727.88;;;22.70;100.00
1776;BME280;885;42.626;23.200;2023-07-22T05:53:03;154722.88;;;22.68;100.00
1776;BME280;885;42.626;23.200;2023-07-22T05:55:30;154740.34;;;22.75;100.00
1776;BME280;885;42.626;23.200;2023-07-22T05:57:58;154761.63;;;22.83;100.00
1776;BME280;885;42.626;23.200;2023-07-22T06:00:31;156002.41;;;23.27;100.00
1776;BME280;885;42.626;23.200;2023-07-22T06:02:58;156064.22;;;23.51;100.00
1776;BME280;885;42.626;23.200;2023-07-22T06:05:24;156122.25;;;23.75;99.09
1776;BME280;885;42.626;23.200;2023-07-22T06:07:51;157405.38;;;24.33;98.12
1776;BME280;885;42.626;23.200;2023-07-22T06:10:20;156785.03;;;24.88;88.25
1776;BME280;885;42.626;23.200;2023-07-22T06:12:46;157228.56;;;25.13;89.38
1776;BME280;885;42.626;23.200;2023-07-22T06:15:15;157236.16;;;25.16;88.65
1776;BME280;885;42.626;23.200;2023-07-22T06:17:42;156847.03;;;25.12;89.23
1776;BME280;885;42.626;23.200;2023-07-22T06:20:10;156460.50;;;25.09;89.18
1776;BME280;885;42.626;23.200;2023-07-22T06:22:37;156022.44;;;24.86;90.17
1776;BME280;885;42.626;23.200;2023-07-22T06:25:04;156416.34;;;24.92;91.55
1776;BME280;885;42.626;23.200;2023-07-22T06:27:31;157644.50;;;25.28;92.25
1776;BME280;885;42.626;23.200;2023-07-22T06:29:58;158552.44;;;25.87;90.67
1776;BME280;885;42.626;23.200;2023-07-22T06:32:27;159080.84;;;26.45;84.46
1776;BME280;885;42.626;23.200;2023-07-22T06:34:55;159561.19;;;26.85;82.47
1776;BME280;885;42.626;23.200;2023-07-22T06:37:22;159594.63;;;26.98;81.38
1776;BME280;885;42.626;23.200;2023-07-22T06:39:49;160040.72;;;27.23;80.32
1776;BME280;885;42.626;23.200;2023-07-22T06:42:16;160570.00;;;27.81;77.83
1776;BME280;885;42.626;23.200;2023-07-22T06:44:43;161153.31;;;28.60;70.96
1776;BME280;885;42.626;23.200;2023-07-22T06:47:10;160875.34;;;29.00;68.18
1776;BME280;885;42.626;23.200;2023-07-22T06:49:38;162263.19;;;29.94;64.37
1776;BME280;885;42.626;23.200;2023-07-22T06:52:06;163190.66;;;30.56;64.69
1776;BME280;885;42.626;23.200;2023-07-22T06:54:33;162312.75;;;30.13;67.63
1776;BME280;885;42.626;23.200;2023-07-22T06:57:00;160945.28;;;29.27;72.22
1776;BME280;885;42.626;23.200;2023-07-22T06:59:27;159601.97;;;28.50;75.93
1776;BME280;885;42.626;23.200;2023-07-22T07:01:54;157098.66;;;27.64;75.41
1776;BME280;885;42.626;23.200;2023-07-22T07:04:21;156205.59;;;27.11;79.27
1776;BME280;885;42.626;23.200;2023-07-22T07:06:49;156157.78;;;26.92;81.73
1776;BME280;885;42.626;23.200;2023-07-22T07:09:16;155336.53;;;26.67;79.66
1776;BME280;885;42.626;23.200;2023-07-22T07:11:43;155327.81;;;26.63;80.55
1776;BME280;885;42.626;23.200;2023-07-22T07:14:09;155720.13;;;26.68;82.55
1776;BME280;885;42.626;23.200;2023-07-22T07:16:36;155736.44;;;26.75;82.01
1776;BME280;885;42.626;23.200;2023-07-22T07:19:03;156130.16;;;26.81;82.68
1776;BME280;885;42.626;23.200;2023-07-22T07:21:30;156133.94;;;26.82;81.50
1776;BME280;885;42.626;23.200;2023-07-22T07:23:58;156141.50;;;26.85;82.74
1776;BME280;885;42.626;23.200;2023-07-22T07:26:25;156157.78;;;26.92;81.49
1776;BME280;885;42.626;23.200;2023-07-22T07:28:51;156190.50;;;27.05;80.25
1776;BME280;885;42.626;23.200;2023-07-22T07:31:18;156986.16;;;27.19;82.57
1776;BME280;885;42.626;23.200;2023-07-22T07:33:45;156208.13;;;27.12;78.40
1776;BME280;885;42.626;23.200;2023-07-22T07:36:12;156235.81;;;27.23;77.25
1776;BME280;885;42.626;23.200;2023-07-22T07:38:40;157030.41;;;27.36;78.44
1776;BME280;885;42.626;23.200;2023-07-22T07:41:08;157056.97;;;27.47;78.59
1776;BME280;885;42.626;23.200;2023-07-22T07:43:37;157493.13;;;27.69;76.54
1776;BME280;885;42.626;23.200;2023-07-22T07:46:15;157126.50;;;27.75;74.06
1776;BME280;885;42.626;23.200;2023-07-22T07:48:43;157509.63;;;27.76;76.47
1776;BME280;885;42.626;23.200;2023-07-22T07:51:12;157909.34;;;27.83;77.56
1776;BME280;885;42.626;23.200;2023-07-22T07:53:39;157933.47;;;27.93;76.94
1776;BME280;885;42.626;23.200;2023-07-22T07:56:08;157919.50;;;27.87;77.35
1776;BME280;885;42.626;23.200;2023-07-22T07:58:35;157528.66;;;27.83;77.16
1776;BME280;885;42.626;23.200;2023-07-22T08:01:02;157541.31;;;27.88;76.95
1776;BME280;885;42.626;23.200;2023-07-22T08:03:29;157960.22;;;28.03;75.29
1776;BME280;885;42.626;23.200;2023-07-22T08:05:56;158348.75;;;28.06;77.52
1776;BME280;885;42.626;23.200;2023-07-22T08:08:23;157602.22;;;28.12;72.46
1776;BME280;885;42.626;23.200;2023-07-22T08:10:58;157655.47;;;28.34;70.51
1776;BME280;885;42.626;23.200;2023-07-22T08:13:26;157282.06;;;28.37;69.00
1776;BME280;885;42.626;23.200;2023-07-22T08:15:55;156918.78;;;28.44;65.25
1776;BME280;885;42.626;23.200;2023-07-22T08:18:22;156170.66;;;28.49;61.61
1776;BME280;885;42.626;23.200;2023-07-22T08:20:49;156202.09;;;28.62;62.18
1776;BME280;885;42.626;23.200;2023-07-22T08:23:15;156590.72;;;28.65;62.96
1776;BME280;885;42.626;23.200;2023-07-22T08:25:42;156604.56;;;28.70;63.23
1776;BME280;885;42.626;23.200;2023-07-22T08:28:09;156636.03;;;28.83;62.49
1776;BME280;885;42.626;23.200;2023-07-22T08:30:37;157042.47;;;28.93;63.40
1776;BME280;885;42.626;23.200;2023-07-22T08:33:05;157055.13;;;28.98;63.45
1776;BME280;885;42.626;23.200;2023-07-22T08:35:33;156692.66;;;29.05;61.56
1776;BME280;885;42.626;23.200;2023-07-22T08:38:01;157098.09;;;29.15;61.90
1776;BME280;885;42.626;23.200;2023-07-22T08:40:33;157516.22;;;29.30;62.73
1776;BME280;885;42.626;23.200;2023-07-22T08:43:00;156754.44;;;29.30;59.10
1776;BME280;885;42.626;23.200;2023-07-22T08:45:30;157172.56;;;29.45;59.17
1776;BME280;885;42.626;23.200;2023-07-22T08:47:59;157582.03;;;29.56;60.07
1776;BME280;885;42.626;23.200;2023-07-22T08:50:30;155605.09;;;29.28;56.98
1776;BME280;885;42.626;23.200;2023-07-22T08:53:01;156410.59;;;29.45;57.99
1776;BME280;885;42.626;23.200;2023-07-22T08:55:28;157219.28;;;29.63;59.41
1776;BME280;885;42.626;23.200;2023-07-22T08:57:55;157260.97;;;29.80;58.16
1776;BME280;885;42.626;23.200;2023-07-22T09:00:22;157297.59;;;29.95;57.97
1776;BME280;885;42.626;23.200;2023-07-22T09:02:50;157725.13;;;30.13;56.12
1776;BME280;885;42.626;23.200;2023-07-22T09:05:20;156982.41;;;30.21;53.61
1776;BME280;885;42.626;23.200;2023-07-22T09:07:48;156614.16;;;30.27;53.43
1776;BME280;885;42.626;23.200;2023-07-22T09:10:15;156631.81;;;30.34;53.01
1776;BME280;885;42.626;23.200;2023-07-22T09:12:42;157058.09;;;30.51;53.83
1776;BME280;885;42.626;23.200;2023-07-22T09:15:10;156668.28;;;30.48;53.54
1776;BME280;885;42.626;23.200;2023-07-22T09:17:38;156700.97;;;30.62;52.59
1776;BME280;885;42.626;23.200;2023-07-22T09:20:07;156353.78;;;30.76;50.33
1776;BME280;885;42.626;23.200;2023-07-22T09:22:35;155597.91;;;30.79;49.57
1776;BME280;885;42.626;23.200;2023-07-22T09:25:14;155585.41;;;30.74;50.38
1776;BME280;885;42.626;23.200;2023-07-22T09:27:41;155223.06;;;30.82;49.11
1776;BME280;885;42.626;23.200;2023-07-22T09:30:22;155240.53;;;30.89;48.82
1776;BME280;885;42.626;23.200;2023-07-22T09:32:50;154395.41;;;30.56;50.13
1776;BME280;885;42.626;23.200;2023-07-22T09:35:17;154833.38;;;30.79;49.74
1776;BME280;885;42.626;23.200;2023-07-22T09:37:46;155664.06;;;31.06;49.29
1776;BME280;885;42.626;23.200;2023-07-22T09:40:17;156102.81;;;31.28;49.66
1776;BME280;885;42.626;23.200;2023-07-22T09:42:48;156122.84;;;31.36;49.74
1776;BME280;885;42.626;23.200;2023-07-22T09:45:16;156555.81;;;31.57;49.30
1776;BME280;885;42.626;23.200;2023-07-22T09:47:44;156967.56;;;31.68;50.10
1776;BME280;885;42.626;23.200;2023-07-22T09:50:13;156988.97;;;31.77;49.32
1776;BME280;885;42.626;23.200;2023-07-22T09:52:42;157374.50;;;31.78;50.68
1776;BME280;885;42.626;23.200;2023-07-22T09:55:10;157390.91;;;31.84;51.25
1776;BME280;885;42.626;23.200;2023-07-22T09:57:40;157416.16;;;31.94;48.74
1776;BME280;885;42.626;23.200;2023-07-22T10:00:11;157865.09;;;32.21;48.65
1776;BME280;885;42.626;23.200;2023-07-22T10:02:41;159099.50;;;32.54;49.65
1776;BME280;885;42.626;23.200;2023-07-22T10:05:12;157029.19;;;31.93;49.52
1776;BME280;885;42.626;23.200;2023-07-22T10:07:41;157828.44;;;32.06;50.43
1776;BME280;885;42.626;23.200;2023-07-22T10:10:11;158278.91;;;32.33;49.95
1776;BME280;885;42.626;23.200;2023-07-22T10:12:40;158320.78;;;32.49;48.88
1776;BME280;885;42.626;23.200;2023-07-22T10:15:08;159548.38;;;32.79;50.77
1776;BME280;885;42.626;23.200;2023-07-22T10:17:36;160407.44;;;33.15;50.22
1776;BME280;885;42.626;23.200;2023-07-22T10:20:03;160069.34;;;33.33;47.03
1776;BME280;885;42.626;23.200;2023-07-22T10:22:34;160121.91;;;33.54;46.25
1776;BME280;885;42.626;23.200;2023-07-22T10:25:06;158432.34;;;32.94;46.61
1776;BME280;885;42.626;23.200;2023-07-22T10:27:36;156345.66;;;32.26;45.60
1776;BME280;885;42.626;23.200;2023-07-22T10:30:05;156328.16;;;32.19;47.85
1776;BME280;885;42.626;23.200;2023-07-22T10:32:34;157562.53;;;32.53;49.02
1776;BME280;885;42.626;23.200;2023-07-22T10:35:02;158027.00;;;32.85;47.36
1776;BME280;885;42.626;23.200;2023-07-22T10:37:30;157581.44;;;32.60;47.22
1776;BME280;885;42.626;23.200;2023-07-22T10:40:01;157623.06;;;32.77;47.66
1776;BME280;885;42.626;23.200;2023-07-22T10:42:51;157644.50;;;32.85;46.83
1776;BME280;885;42.626;23.200;2023-07-22T10:45:25;156859.50;;;32.78;45.00
1776;BME280;885;42.626;23.200;2023-07-22T10:48:01;158077.66;;;33.05;47.23
1776;BME280;885;42.626;23.200;2023-07-22T10:50:38;157298.59;;;33.01;45.03
1776;BME280;885;42.626;23.200;2023-07-22T10:53:06;157306.13;;;33.04;44.59
1776;BME280;885;42.626;23.200;2023-07-22T10:55:33;157763.13;;;33.33;43.85
1776;BME280;885;42.626;23.200;2023-07-22T10:58:04;157768.19;;;33.35;44.29
1776;BME280;885;42.626;23.200;2023-07-22T11:00:30;157760.63;;;33.32;44.80
1776;BME280;885;42.626;23.200;2023-07-22T11:03:09;157828.84;;;33.59;42.93
1776;BME280;885;42.626;23.200;2023-07-22T11:05:49;157862.88;;;33.73;42.94
1776;BME280;885;42.626;23.200;2023-07-22T11:08:35;157054.19;;;33.56;41.89
1776;BME280;885;42.626;23.200;2023-07-22T11:11:03;157447.13;;;33.60;43.82
1776;BME280;885;42.626;23.200;2023-07-22T11:13:35;158256.09;;;33.76;44.31
1776;BME280;885;42.626;23.200;2023-07-22T11:16:03;157503.81;;;33.83;42.35
1776;BME280;885;42.626;23.200;2023-07-22T11:18:37;158299.13;;;33.93;43.25
1776;BME280;885;42.626;23.200;2023-07-22T11:21:07;157535.28;;;33.95;41.90
1776;BME280;885;42.626;23.200;2023-07-22T11:23:34;157907.06;;;33.90;43.13
1776;BME280;885;42.626;23.200;2023-07-22T11:26:02;158324.47;;;34.03;43.36
1776;BME280;885;42.626;23.200;2023-07-22T11:28:30;157552.94;;;34.02;42.09
1776;BME280;885;42.626;23.200;2023-07-22T11:30:57;157992.97;;;34.24;41.94
1776;BME280;885;42.626;23.200;2023-07-22T11:33:26;157563.00;;;34.06;41.60
1776;BME280;885;42.626;23.200;2023-07-22T11:35:56;156760.28;;;33.93;41.49
1776;BME280;885;42.626;23.200;2023-07-22T11:38:24;156344.72;;;33.80;41.95
1776;BME280;885;42.626;23.200;2023-07-22T11:40:51;155486.84;;;33.44;42.23
1776;BME280;885;42.626;23.200;2023-07-22T11:43:18;155058.34;;;33.26;42.86
1776;BME280;885;42.626;23.200;2023-07-22T11:45:48;155086.84;;;33.37;43.16
1776;BME280;885;42.626;23.200;2023-07-22T11:48:15;155509.28;;;33.53;43.21
1776;BME280;885;42.626;23.200;2023-07-22T11:50:42;154679.56;;;33.28;42.78
1776;BME280;885;42.626;23.200;2023-07-22T11:53:09;155488.09;;;33.44;43.16
1776;BME280;885;42.626;23.200;2023-07-22T11:55:36;155526.66;;;33.60;42.58
1776;BME280;885;42.626;23.200;2023-07-22T11:58:04;156342.22;;;33.79;42.54
1776;BME280;885;42.626;23.200;2023-07-22T12:00:33;157600.78;;;34.21;43.19
1776;BME280;885;42.626;23.200;2023-07-22T12:03:06;155554.00;;;33.71;41.60
1776;BME280;885;42.626;23.200;2023-07-22T12:05:35;155530.41;;;33.61;42.54
1776;BME280;885;42.626;23.200;2023-07-22T12:08:03;154700.56;;;33.36;43.24
1776;BME280;885;42.626;23.200;2023-07-22T12:10:31;155091.78;;;33.39;43.99
1776;BME280;885;42.626;23.200;2023-07-22T12:13:00;155116.66;;;33.49;43.14
1776;BME280;885;42.626;23.200;2023-07-22T12:15:27;156358.47;;;33.86;43.24
1776;BME280;885;42.626;23.200;2023-07-22T12:17:56;157183.56;;;34.08;43.92
1776;BME280;885;42.626;23.200;2023-07-22T12:20:26;157241.34;;;34.31;42.09
1776;BME280;885;42.626;23.200;2023-07-22T12:22:53;156861.78;;;34.33;41.92
1776;BME280;885;42.626;23.200;2023-07-22T12:25:19;157720.47;;;34.69;40.47
1776;BME280;885;42.626;23.200;2023-07-22T12:27:46;157755.78;;;34.83;40.94
1776;BME280;885;42.626;23.200;2023-07-22T12:30:13;156928.25;;;34.60;40.36
1776;BME280;885;42.626;23.200;2023-07-22T12:32:41;157362.00;;;34.80;40.86
1776;BME280;885;42.626;23.200;2023-07-22T12:35:08;156932.00;;;34.62;40.37
1776;BME280;885;42.626;23.200;2023-07-22T12:37:36;154840.34;;;33.93;41.22
1776;BME280;885;42.626;23.200;2023-07-22T12:40:04;155254.31;;;34.05;40.92
1776;BME280;885;42.626;23.200;2023-07-22T12:42:33;156110.16;;;34.40;41.20
1776;BME280;885;42.626;23.200;2023-07-22T12:45:00;156554.75;;;34.65;40.25
1776;BME280;885;42.626;23.200;2023-07-22T12:47:27;157003.44;;;34.90;39.96
1776;BME280;885;42.626;23.200;2023-07-22T12:49:53;155800.28;;;34.71;39.01
1776;BME280;885;42.626;23.200;2023-07-22T12:52:20;154965.28;;;34.44;39.41
1776;BME280;885;42.626;23.200;2023-07-22T12:54:48;155762.97;;;34.56;40.26
1776;BME280;885;42.626;23.200;2023-07-22T12:57:15;155817.69;;;34.78;38.84
1776;BME280;885;42.626;23.200;2023-07-22T12:59:42;156254.88;;;34.99;39.17
1776;BME280;885;42.626;23.200;2023-07-22T13:02:08;156254.88;;;34.99;38.77
1776;BME280;885;42.626;23.200;2023-07-22T13:04:35;155857.50;;;34.94;38.59
1776;BME280;885;42.626;23.200;2023-07-22T13:07:02;155395.72;;;34.63;39.57
1776;BME280;885;42.626;23.200;2023-07-22T13:09:29;155445.38;;;34.83;38.92
1776;BME280;885;42.626;23.200;2023-07-22T13:11:57;153931.19;;;34.93;35.40